createdAt,value
2018-08-11T00:02:02.735Z,18.90
2018-08-11T00:04:30.242Z,18.90
2018-08-11T00:06:57.705Z,18.60
2018-08-11T00:09:25.208Z,18.90
2018-08-11T00:11:52.783Z,18.90
2018-08-11T00:14:20.245Z,18.60
2018-08-11T00:16:47.708Z,18.60
2018-08-11T00:19:15.180Z,18.60
2018-08-11T00:21:42.775Z,18.50
2018-08-11T00:24:10.438Z,18.60
2018-08-11T00:26:37.927Z,18.60
2018-08-11T00:29:05.528Z,18.50
2018-08-11T00:31:33.575Z,18.50
2018-08-11T00:34:01.500Z,18.50
2018-08-11T00:36:29.502Z,18.60
2018-08-11T00:38:57.579Z,18.60
2018-08-11T00:41:25.709Z,18.60
2018-08-11T00:43:53.877Z,18.60
2018-08-11T00:46:21.425Z,18.30
2018-08-11T00:48:48.945Z,18.50
2018-08-11T00:51:16.466Z,18.30
2018-08-11T00:53:43.991Z,18.30
2018-08-11T00:56:11.515Z,18.20
2018-08-11T00:58:39.216Z,18.20
2018-08-11T01:01:06.709Z,18.30
2018-08-11T01:03:34.280Z,18.20
2018-08-11T01:06:01.691Z,18.20
2018-08-11T01:08:29.240Z,18.30
2018-08-11T01:10:56.737Z,18.10
2018-08-11T01:13:24.157Z,18.10
2018-08-11T01:15:51.666Z,18.20
2018-08-11T01:18:19.132Z,18.30
2018-08-11T01:20:46.603Z,18.30
2018-08-11T01:23:14.051Z,18.30
2018-08-11T01:25:41.542Z,18.30
2018-08-11T01:28:08.996Z,18.30
2018-08-11T01:30:36.427Z,18.30
2018-08-11T01:33:03.952Z,18.20
2018-08-11T01:35:31.539Z,18.20
2018-08-11T01:37:59.077Z,18.20
2018-08-11T01:40:26.646Z,18.20
2018-08-11T01:42:54.104Z,18.00
2018-08-11T01:45:21.583Z,18.10
2018-08-11T01:47:49.091Z,18.10
2018-08-11T01:50:16.752Z,18.00
2018-08-11T01:52:45.420Z,18.00
2018-08-11T01:55:14.439Z,18.00
2018-08-11T01:57:42.011Z,18.10
2018-08-11T02:00:11.286Z,18.10
2018-08-11T02:02:39.143Z,18.30
2018-08-11T02:05:07.474Z,18.30
2018-08-11T02:07:35.091Z,18.50
2018-08-11T02:10:02.647Z,18.40
2018-08-11T02:12:30.277Z,18.40
2018-08-11T02:14:57.750Z,18.20
2018-08-11T02:17:25.208Z,18.40
2018-08-11T02:19:52.720Z,18.50
2018-08-11T02:22:20.215Z,18.40
2018-08-11T02:24:49.928Z,18.30
2018-08-11T02:27:17.339Z,18.40
2018-08-11T02:29:44.921Z,18.30
2018-08-11T02:32:12.383Z,18.30
2018-08-11T02:34:39.796Z,18.30
2018-08-11T02:37:07.255Z,18.30
2018-08-11T02:39:34.729Z,18.20
2018-08-11T02:42:02.299Z,18.20
2018-08-11T02:44:29.880Z,18.40
2018-08-11T02:46:57.355Z,18.30
2018-08-11T02:49:24.830Z,18.20
2018-08-11T02:51:52.358Z,18.30
2018-08-11T02:54:19.834Z,18.20
2018-08-11T02:56:47.399Z,18.30
2018-08-11T02:59:19.423Z,18.20
2018-08-11T03:01:46.913Z,18.30
2018-08-11T03:04:14.311Z,18.20
2018-08-11T03:06:41.779Z,17.90
2018-08-11T03:09:09.434Z,18.20
2018-08-11T03:11:36.857Z,18.30
2018-08-11T03:14:04.455Z,18.20
2018-08-11T03:16:31.992Z,18.20
2018-08-11T03:18:59.795Z,18.10
2018-08-11T03:21:27.379Z,18.30
2018-08-11T03:23:54.809Z,18.10
2018-08-11T03:26:22.335Z,18.20
2018-08-11T03:28:49.810Z,18.20
2018-08-11T03:31:17.306Z,18.30
2018-08-11T03:33:44.711Z,18.10
2018-08-11T03:36:12.143Z,18.20
2018-08-11T03:38:39.599Z,18.00
2018-08-11T03:41:07.027Z,18.00
2018-08-11T03:43:34.530Z,18.00
2018-08-11T03:46:02.132Z,18.10
2018-08-11T03:48:29.507Z,18.00
2018-08-11T03:50:56.979Z,18.00
2018-08-11T03:53:24.482Z,18.10
2018-08-11T03:55:52.035Z,18.10
2018-08-11T03:58:19.497Z,18.10
2018-08-11T04:00:46.937Z,18.10
2018-08-11T04:03:14.379Z,18.00
2018-08-11T04:05:41.840Z,18.00
2018-08-11T04:08:09.297Z,18.00
2018-08-11T04:10:36.812Z,17.90
2018-08-11T04:13:04.301Z,17.90
2018-08-11T04:15:31.808Z,18.00
2018-08-11T04:17:59.319Z,18.00
2018-08-11T04:20:26.763Z,18.10
2018-08-11T04:22:54.202Z,18.00
2018-08-11T04:25:21.750Z,18.00
2018-08-11T04:27:49.166Z,18.00
2018-08-11T04:30:16.607Z,18.10
2018-08-11T04:32:47.662Z,18.10
2018-08-11T04:35:15.247Z,18.10
2018-08-11T04:37:42.739Z,18.10
2018-08-11T04:40:10.195Z,18.10
2018-08-11T04:42:37.750Z,18.20
2018-08-11T04:45:05.638Z,18.20
2018-08-11T04:47:33.255Z,18.10
2018-08-11T04:50:00.705Z,18.10
2018-08-11T04:52:28.128Z,18.10
2018-08-11T04:54:55.685Z,18.10
2018-08-11T04:57:23.233Z,18.20
2018-08-11T04:59:50.655Z,18.20
2018-08-11T05:02:18.080Z,18.30
2018-08-11T05:04:45.573Z,18.20
2018-08-11T05:07:13.039Z,18.20
2018-08-11T05:09:40.434Z,18.20
2018-08-11T05:12:07.940Z,18.30
2018-08-11T05:14:35.410Z,18.40
2018-08-11T05:17:02.963Z,18.50
2018-08-11T05:19:30.391Z,18.60
2018-08-11T05:21:57.851Z,18.50
2018-08-11T05:24:25.274Z,18.50
2018-08-11T05:26:52.796Z,18.50
2018-08-11T05:29:20.298Z,18.50
2018-08-11T05:31:47.772Z,18.50
2018-08-11T05:34:15.239Z,18.40
2018-08-11T05:36:42.688Z,18.40
2018-08-11T05:39:12.399Z,18.50
2018-08-11T05:41:40.036Z,18.70
2018-08-11T05:44:07.535Z,18.70
2018-08-11T05:46:34.983Z,18.60
2018-08-11T05:49:03.471Z,18.60
2018-08-11T05:51:31.193Z,18.70
2018-08-11T05:53:58.807Z,18.80
2018-08-11T05:56:26.268Z,19.00
2018-08-11T05:58:53.769Z,18.90
2018-08-11T06:01:21.452Z,19.00
2018-08-11T06:03:49.171Z,19.00
2018-08-11T06:06:16.652Z,19.00
2018-08-11T06:08:44.079Z,19.10
2018-08-11T06:11:12.065Z,19.10
2018-08-11T06:13:39.653Z,19.10
2018-08-11T06:16:07.099Z,19.10
2018-08-11T06:18:38.193Z,19.20
2018-08-11T06:21:05.692Z,19.10
2018-08-11T06:23:33.327Z,19.00
2018-08-11T06:26:01.019Z,18.80
2018-08-11T06:28:28.594Z,18.60
2018-08-11T06:30:56.102Z,18.60
2018-08-11T06:33:24.401Z,18.50
2018-08-11T06:35:51.971Z,18.50
2018-08-11T06:38:19.445Z,18.40
2018-08-11T06:40:46.899Z,18.50
2018-08-11T06:43:17.060Z,18.50
2018-08-11T06:45:44.482Z,18.60
2018-08-11T06:48:12.042Z,18.60
2018-08-11T06:50:39.537Z,18.70
2018-08-11T06:53:07.078Z,18.70
2018-08-11T06:55:34.622Z,18.80
2018-08-11T06:58:02.058Z,18.50
2018-08-11T07:00:30.145Z,18.60
2018-08-11T07:02:57.913Z,18.80
2018-08-11T07:05:25.343Z,18.70
2018-08-11T07:07:52.848Z,18.80
2018-08-11T07:10:20.516Z,18.70
2018-08-11T07:12:48.088Z,19.20
2018-08-11T07:15:15.903Z,19.40
2018-08-11T07:17:43.517Z,19.50
2018-08-11T07:20:11.169Z,19.50
2018-08-11T07:22:38.673Z,19.40
2018-08-11T07:25:06.541Z,19.20
2018-08-11T07:27:34.019Z,19.30
2018-08-11T07:30:01.605Z,19.20
2018-08-11T07:32:29.124Z,19.20
2018-08-11T07:34:56.622Z,19.20
2018-08-11T07:37:24.227Z,19.20
2018-08-11T07:39:51.688Z,19.50
2018-08-11T07:42:19.130Z,19.70
2018-08-11T07:44:46.634Z,19.90
2018-08-11T07:47:14.195Z,19.90
2018-08-11T07:49:41.624Z,19.90
2018-08-11T07:52:09.319Z,20.10
2018-08-11T07:54:36.860Z,20.00
2018-08-11T07:57:04.427Z,20.10
2018-08-11T07:59:31.939Z,20.20
2018-08-11T08:02:01.891Z,20.40
2018-08-11T08:04:36.283Z,20.60
2018-08-11T08:07:03.815Z,20.80
2018-08-11T08:09:31.404Z,21.00
2018-08-11T08:11:58.996Z,21.10
2018-08-11T08:14:30.640Z,21.40
2018-08-11T08:16:58.228Z,21.20
2018-08-11T08:19:25.912Z,21.40
2018-08-11T08:21:53.494Z,21.40
2018-08-11T08:24:21.042Z,21.40
2018-08-11T08:26:48.589Z,21.50
2018-08-11T08:29:16.139Z,21.70
2018-08-11T08:31:43.605Z,21.80
2018-08-11T08:34:11.131Z,21.80
2018-08-11T08:36:38.646Z,22.20
2018-08-11T08:39:08.023Z,22.20
2018-08-11T08:41:35.535Z,22.10
2018-08-11T08:44:03.099Z,22.20
2018-08-11T08:46:31.457Z,22.10
2018-08-11T08:49:00.959Z,22.40
2018-08-11T08:51:28.439Z,22.10
2018-08-11T08:53:55.973Z,22.20
2018-08-11T08:56:23.482Z,22.50
2018-08-11T08:58:50.991Z,22.90
2018-08-11T09:01:18.573Z,22.50
2018-08-11T09:03:51.023Z,22.90
2018-08-11T09:06:18.739Z,22.90
2018-08-11T09:08:46.165Z,23.30
2018-08-11T09:11:13.596Z,23.20
2018-08-11T09:13:41.084Z,22.80
2018-08-11T09:16:08.868Z,22.60
2018-08-11T09:18:36.372Z,22.90
2018-08-11T09:21:03.932Z,23.50
2018-08-11T09:23:31.356Z,23.90
2018-08-11T09:25:58.860Z,24.00
2018-08-11T09:28:26.342Z,23.90
2018-08-11T09:30:53.835Z,24.30
2018-08-11T09:33:21.429Z,24.40
2018-08-11T09:35:48.908Z,24.60
2018-08-11T09:38:16.406Z,24.80
2018-08-11T09:40:43.871Z,24.90
2018-08-11T09:43:11.418Z,24.80
2018-08-11T09:45:39.038Z,24.30
2018-08-11T09:48:06.443Z,24.70
2018-08-11T09:50:33.864Z,25.10
2018-08-11T09:53:01.308Z,25.20
2018-08-11T09:55:29.180Z,25.40
2018-08-11T09:57:56.760Z,25.40
2018-08-11T10:00:30.125Z,25.50
2018-08-11T10:02:59.873Z,25.40
2018-08-11T10:05:28.128Z,25.20
2018-08-11T10:07:55.635Z,25.50
2018-08-11T10:10:23.092Z,25.80
2018-08-11T10:12:50.597Z,26.30
2018-08-11T10:15:18.283Z,25.90
2018-08-11T10:17:45.759Z,26.50
2018-08-11T10:20:13.232Z,26.10
2018-08-11T10:22:40.719Z,26.20
2018-08-11T10:25:08.243Z,26.50
2018-08-11T10:27:35.675Z,26.50
2018-08-11T10:30:05.779Z,26.90
2018-08-11T10:32:33.291Z,26.90
2018-08-11T10:35:00.807Z,26.40
2018-08-11T10:37:28.308Z,26.30
2018-08-11T10:39:55.837Z,26.40
2018-08-11T10:42:23.295Z,26.40
2018-08-11T10:44:50.746Z,26.40
2018-08-11T10:47:18.201Z,26.40
2018-08-11T10:49:46.044Z,26.60
2018-08-11T10:52:14.642Z,27.10
2018-08-11T10:54:42.399Z,27.40
2018-08-11T10:57:10.146Z,27.50
2018-08-11T10:59:37.686Z,27.50
2018-08-11T11:02:05.164Z,27.20
2018-08-11T11:04:32.797Z,26.60
2018-08-11T11:07:00.361Z,26.30
2018-08-11T11:09:27.854Z,26.80
2018-08-11T11:11:55.346Z,27.00
2018-08-11T11:14:22.853Z,27.70
2018-08-11T11:16:50.403Z,27.60
2018-08-11T11:19:18.008Z,27.40
2018-08-11T11:21:45.498Z,26.70
2018-08-11T11:24:13.018Z,25.70
2018-08-11T11:26:40.638Z,25.80
2018-08-11T11:29:08.649Z,25.70
2018-08-11T11:31:36.317Z,26.60
2018-08-11T11:34:04.023Z,27.50
2018-08-11T11:36:31.566Z,27.90
2018-08-11T11:38:59.186Z,27.80
2018-08-11T11:41:26.709Z,28.40
2018-08-11T11:43:54.247Z,29.00
2018-08-11T11:46:21.656Z,29.40
2018-08-11T11:48:49.087Z,30.30
2018-08-11T11:51:16.563Z,30.30
2018-08-11T11:53:44.180Z,31.20
2018-08-11T11:56:11.674Z,32.40
2018-08-11T11:58:39.173Z,33.60
2018-08-11T12:01:06.871Z,35.40
2018-08-11T12:03:34.392Z,36.60
2018-08-11T12:06:01.835Z,38.00
2018-08-11T12:08:29.438Z,39.20
2018-08-11T12:10:56.895Z,39.60
2018-08-11T12:13:24.511Z,39.50
2018-08-11T12:15:51.962Z,38.90
2018-08-11T12:18:19.497Z,38.60
2018-08-11T12:20:46.947Z,37.40
2018-08-11T12:23:14.460Z,36.90
2018-08-11T12:25:41.923Z,35.80
2018-08-11T12:28:09.752Z,35.10
2018-08-11T12:30:37.226Z,34.70
2018-08-11T12:33:04.706Z,34.30
2018-08-11T12:35:32.638Z,34.40
2018-08-11T12:38:01.268Z,32.90
2018-08-11T12:40:28.750Z,33.00
2018-08-11T12:42:56.207Z,32.50
2018-08-11T12:45:23.702Z,33.20
2018-08-11T12:47:51.182Z,34.00
2018-08-11T12:50:18.626Z,33.60
2018-08-11T12:52:46.238Z,34.10
2018-08-11T12:55:13.690Z,34.50
2018-08-11T12:57:41.172Z,34.60
2018-08-11T13:00:09.758Z,35.20
2018-08-11T13:02:37.551Z,35.70
2018-08-11T13:07:38.636Z,34.00
2018-08-11T13:10:06.592Z,34.30
2018-08-11T13:12:34.519Z,34.00
2018-08-11T13:15:02.098Z,33.80
2018-08-11T13:17:31.993Z,33.60
2018-08-11T13:19:59.474Z,34.40
2018-08-11T13:22:27.203Z,34.80
2018-08-11T13:24:54.715Z,34.40
2018-08-11T13:27:22.252Z,34.00
2018-08-11T13:29:50.870Z,31.80
2018-08-11T13:32:18.551Z,31.60
2018-08-11T13:34:46.032Z,31.70
2018-08-11T13:37:13.920Z,32.10
2018-08-11T13:39:51.479Z,31.10
2018-08-11T13:42:19.601Z,30.70
2018-08-11T13:44:49.123Z,30.90
2018-08-11T13:50:05.447Z,31.80
2018-08-11T13:52:33.428Z,32.20
2018-08-11T13:55:01.618Z,32.20
2018-08-11T13:57:29.059Z,31.40
2018-08-11T13:59:56.718Z,31.50
2018-08-11T14:02:24.418Z,31.20
2018-08-11T14:04:56.265Z,31.70
2018-08-11T14:07:41.477Z,31.30
2018-08-11T14:10:11.310Z,31.50
2018-08-11T14:12:51.056Z,31.80
2018-08-11T14:15:19.880Z,31.40
2018-08-11T14:17:48.364Z,30.70
2018-08-11T14:20:17.277Z,31.40
2018-08-11T14:22:54.786Z,31.80
2018-08-11T14:25:35.748Z,31.90
2018-08-11T14:28:12.172Z,32.60
2018-08-11T14:30:42.550Z,33.20
2018-08-11T14:33:11.628Z,33.60
2018-08-11T14:35:45.998Z,32.50
2018-08-11T14:38:14.355Z,32.00
2018-08-11T14:40:43.119Z,32.30
2018-08-11T14:43:11.486Z,31.60
2018-08-11T14:45:41.608Z,31.00
2018-08-11T14:48:09.884Z,30.60
2018-08-11T14:50:39.707Z,30.70
2018-08-11T14:53:11.688Z,30.60
2018-08-11T14:55:41.390Z,30.40
2018-08-11T14:58:10.382Z,30.20
2018-08-11T15:00:38.658Z,29.70
2018-08-11T15:03:08.818Z,29.00
2018-08-11T15:05:37.723Z,28.50
2018-08-11T15:08:07.868Z,28.10
2018-08-11T15:10:36.396Z,27.60
2018-08-11T15:13:10.012Z,27.40
2018-08-11T15:15:39.667Z,27.30
2018-08-11T15:18:11.754Z,26.90
2018-08-11T15:20:40.741Z,26.80
2018-08-11T15:23:10.563Z,26.50
2018-08-11T15:25:43.045Z,26.40
2018-08-11T15:28:12.185Z,25.90
2018-08-11T15:30:40.664Z,25.80
2018-08-11T15:33:09.232Z,25.90
2018-08-11T15:35:39.502Z,26.00
2018-08-11T15:38:08.809Z,25.70
2018-08-11T15:40:38.146Z,25.80
2018-08-11T15:43:06.767Z,25.70
2018-08-11T15:45:35.663Z,25.60
2018-08-11T15:48:04.882Z,25.40
2018-08-11T15:50:34.393Z,25.40
2018-08-11T15:53:03.003Z,25.40
2018-08-11T15:55:31.508Z,25.50
2018-08-11T15:58:00.342Z,25.40
2018-08-11T16:00:31.182Z,25.20
2018-08-11T16:03:00.856Z,25.40
2018-08-11T16:05:29.190Z,25.10
2018-08-11T16:08:03.435Z,25.20
2018-08-11T16:10:34.120Z,25.10
2018-08-11T16:13:02.618Z,25.10
2018-08-11T16:15:31.425Z,25.00
2018-08-11T16:18:00.537Z,24.90
2018-08-11T16:20:30.450Z,25.00
2018-08-11T16:23:00.052Z,25.10
2018-08-11T16:25:28.652Z,25.10
2018-08-11T16:27:58.559Z,25.00
2018-08-11T16:30:27.055Z,25.00
2018-08-11T16:32:56.194Z,25.00
2018-08-11T16:35:24.630Z,25.00
2018-08-11T16:37:53.917Z,24.80
2018-08-11T16:40:28.102Z,24.80
2018-08-11T16:42:57.197Z,24.90
2018-08-11T16:45:27.366Z,25.00
2018-08-11T16:47:56.388Z,24.90
2018-08-11T16:50:25.788Z,24.80
2018-08-11T16:52:54.038Z,24.90
2018-08-11T16:55:21.723Z,24.80
2018-08-11T16:57:50.991Z,24.90
2018-08-11T17:00:18.575Z,24.80
2018-08-11T17:02:46.295Z,24.80
2018-08-11T17:05:14.354Z,24.70
2018-08-11T17:07:47.227Z,24.70
2018-08-11T17:10:14.942Z,24.60
2018-08-11T17:12:42.552Z,24.50
2018-08-11T17:15:11.596Z,24.70
2018-08-11T17:17:39.550Z,24.60
2018-08-11T17:20:08.040Z,24.40
2018-08-11T17:22:36.997Z,24.60
2018-08-11T17:25:05.893Z,24.30
2018-08-11T17:27:33.720Z,24.40
2018-08-11T17:30:01.301Z,24.40
2018-08-11T17:32:28.753Z,24.40
2018-08-11T17:34:56.485Z,24.30
2018-08-11T17:37:24.133Z,24.30
2018-08-11T17:39:51.847Z,24.30
2018-08-11T17:42:19.404Z,24.20
2018-08-11T17:44:47.002Z,24.30
2018-08-11T17:47:14.433Z,24.10
2018-08-11T17:49:41.949Z,24.20
2018-08-11T17:52:09.399Z,24.10
2018-08-11T17:54:36.974Z,24.10
2018-08-11T17:57:04.538Z,24.00
2018-08-11T17:59:32.243Z,23.90
2018-08-11T18:01:59.794Z,23.90
2018-08-11T18:04:27.563Z,23.80
2018-08-11T18:06:55.014Z,23.90
2018-08-11T18:09:22.836Z,23.80
2018-08-11T18:11:50.352Z,23.60
2018-08-11T18:14:17.968Z,23.70
2018-08-11T18:16:45.419Z,23.70
2018-08-11T18:19:12.845Z,23.80
2018-08-11T18:21:40.381Z,23.60
2018-08-11T18:24:07.939Z,23.60
2018-08-11T18:26:35.466Z,23.60
2018-08-11T18:29:03.069Z,23.50
2018-08-11T18:31:30.758Z,23.50
2018-08-11T18:33:58.250Z,23.50
2018-08-11T18:36:25.732Z,23.50
2018-08-11T18:38:53.243Z,23.30
2018-08-11T18:41:20.714Z,23.20
2018-08-11T18:43:48.275Z,23.30
2018-08-11T18:46:24.264Z,23.10
2018-08-11T18:48:51.846Z,23.10
2018-08-11T18:51:19.412Z,23.00
2018-08-11T18:53:46.878Z,23.20
2018-08-11T18:56:15.481Z,23.00
2018-08-11T18:58:43.018Z,22.90
2018-08-11T19:01:10.484Z,23.00
2018-08-11T19:03:38.059Z,23.00
2018-08-11T19:06:05.651Z,22.80
2018-08-11T19:08:33.127Z,22.90
2018-08-11T19:11:00.623Z,22.80
2018-08-11T19:13:28.181Z,22.70
2018-08-11T19:15:55.776Z,22.70
2018-08-11T19:18:23.269Z,22.60
2018-08-11T19:20:50.777Z,22.60
2018-08-11T19:23:18.247Z,22.50
2018-08-11T19:25:45.858Z,22.50
2018-08-11T19:28:13.197Z,22.40
2018-08-11T19:30:40.687Z,22.40
2018-08-11T19:33:08.207Z,22.30
2018-08-11T19:35:35.814Z,22.30
2018-08-11T19:38:04.049Z,22.20
2018-08-11T19:40:31.528Z,22.20
2018-08-11T19:42:59.103Z,22.20
2018-08-11T19:45:27.020Z,22.20
2018-08-11T19:47:54.759Z,22.10
2018-08-11T19:50:22.995Z,22.10
2018-08-11T19:52:50.775Z,22.00
2018-08-11T19:55:18.295Z,22.00
2018-08-11T19:57:45.872Z,22.00
2018-08-11T20:00:14.426Z,22.00
2018-08-11T20:02:42.804Z,21.90
2018-08-11T20:05:11.683Z,21.80
2018-08-11T20:07:39.779Z,21.80
2018-08-11T20:10:07.966Z,21.70
2018-08-11T20:12:37.398Z,21.80
2018-08-11T20:15:06.349Z,21.60
2018-08-11T20:17:35.170Z,21.60
2018-08-11T20:20:03.638Z,21.50
2018-08-11T20:22:31.411Z,21.60
2018-08-11T20:24:59.158Z,21.40
2018-08-11T20:27:27.842Z,21.30
2018-08-11T20:29:57.107Z,21.30
2018-08-11T20:32:27.180Z,21.10
2018-08-11T20:34:54.896Z,21.10
2018-08-11T20:37:22.796Z,21.10
2018-08-11T20:39:50.719Z,20.90
2018-08-11T20:42:20.871Z,21.00
2018-08-11T20:44:48.700Z,21.00
2018-08-11T20:47:16.807Z,20.90
2018-08-11T20:49:45.027Z,20.70
2018-08-11T20:52:13.564Z,20.60
2018-08-11T20:54:41.630Z,20.80
2018-08-11T20:57:10.645Z,20.70
2018-08-11T20:59:38.902Z,20.80
2018-08-11T21:02:07.601Z,20.70
2018-08-11T21:04:35.562Z,20.70
2018-08-11T21:07:03.159Z,20.60
2018-08-11T21:09:31.341Z,20.70
2018-08-11T21:12:00.474Z,20.60
2018-08-11T21:14:28.771Z,20.50
2018-08-11T21:16:57.299Z,20.50
2018-08-11T21:19:25.307Z,20.50
2018-08-11T21:21:52.824Z,20.40
2018-08-11T21:24:20.590Z,20.30
2018-08-11T21:26:48.365Z,20.50
2018-08-11T21:29:16.245Z,20.40
2018-08-11T21:31:44.051Z,20.40
2018-08-11T21:34:11.556Z,20.40
2018-08-11T21:36:39.892Z,20.30
2018-08-11T21:39:10.079Z,20.10
2018-08-11T21:41:39.257Z,20.10
2018-08-11T21:44:07.166Z,20.10
2018-08-11T21:46:35.610Z,20.00
2018-08-11T21:49:03.287Z,20.00
2018-08-11T21:51:30.802Z,19.90
2018-08-11T21:53:58.271Z,19.90
2018-08-11T21:56:25.835Z,19.90
2018-08-11T21:58:55.422Z,19.90
2018-08-11T22:01:23.295Z,19.90
2018-08-11T22:03:50.808Z,19.80
2018-08-11T22:06:18.304Z,19.90
2018-08-11T22:08:45.730Z,19.80
2018-08-11T22:11:13.439Z,19.70
2018-08-11T22:13:40.972Z,19.60
2018-08-11T22:16:08.603Z,19.50
2018-08-11T22:18:36.356Z,19.60
2018-08-11T22:21:04.412Z,19.60
2018-08-11T22:23:32.186Z,19.60
2018-08-11T22:25:59.761Z,19.50
2018-08-11T22:28:27.463Z,19.40
2018-08-11T22:30:54.937Z,19.40
2018-08-11T22:33:22.422Z,19.40
2018-08-11T22:35:49.905Z,19.30
2018-08-11T22:38:17.307Z,19.40
2018-08-11T22:40:44.954Z,19.30
2018-08-11T22:43:12.573Z,19.50
2018-08-11T22:45:40.179Z,19.40
2018-08-11T22:48:07.622Z,19.40
2018-08-11T22:50:35.109Z,19.20
2018-08-11T22:53:02.799Z,19.20
2018-08-11T22:55:31.175Z,19.20
2018-08-11T22:57:58.647Z,19.00
2018-08-11T23:00:26.299Z,19.00
2018-08-11T23:02:53.826Z,18.90
2018-08-11T23:05:21.835Z,18.90
2018-08-11T23:07:49.346Z,18.80
2018-08-11T23:10:17.327Z,18.80
2018-08-11T23:12:45.385Z,18.80
2018-08-11T23:15:14.215Z,18.60
2018-08-11T23:17:43.258Z,18.70
2018-08-11T23:20:10.863Z,18.60
2018-08-11T23:22:38.388Z,18.50
2018-08-11T23:25:06.768Z,18.60
2018-08-11T23:27:34.675Z,18.60
2018-08-11T23:30:02.337Z,18.50
2018-08-11T23:32:29.813Z,18.60
2018-08-11T23:34:57.587Z,18.50
2018-08-11T23:37:26.221Z,18.50
2018-08-11T23:39:53.738Z,18.50
2018-08-11T23:42:21.190Z,18.20
2018-08-11T23:44:48.652Z,18.20
2018-08-11T23:47:16.190Z,18.30
2018-08-11T23:49:43.696Z,18.30
2018-08-11T23:52:11.222Z,18.30
2018-08-11T23:54:38.682Z,18.20
2018-08-11T23:57:06.381Z,18.30
2018-08-11T23:59:34.032Z,18.10
